Time;durP1;ratioP1;P1;durP2;ratioP2;P2;SDS_P1;SDS_P2;PMS_P1;PMS_P2;Temp;Humidity;BMP_temperature;BMP_pressure;BME280_temperature;BME280_humidity;BME280_pressure;Samples;Min_cycle;Max_cycle;Signal;HPM_P1;HPM_P2
2022/01/21 00:00:45;;;;;;;4.50;1.92;;;;;;;-6.38;67.14;100933.28;5097716;28;20318;-61
2022/01/21 00:03:15;;;;;;;4.00;1.90;;;;;;;-6.30;67.34;100933.75;5097704;28;20220;-61
2022/01/21 00:05:47;;;;;;;3.85;1.88;;;;;;;-6.18;66.72;100939.59;5097462;28;20056;-61
2022/01/21 00:08:18;;;;;;;2.72;1.80;;;;;;;-6.91;66.38;100810.47;5097536;28;20051;-62
2022/01/21 00:10:50;;;;;;;4.13;1.92;;;;;;;-6.15;66.09;100937.25;5097124;28;20123;-62
2022/01/21 00:13:24;;;;;;;5.10;1.77;;;;;;;-6.12;66.77;100932.34;5097482;28;20059;-62
2022/01/21 00:15:57;;;;;;;5.95;1.83;;;;;;;-6.08;66.42;100929.19;5097404;28;20074;-62
2022/01/21 00:18:27;;;;;;;3.65;1.90;;;;;;;-6.02;66.20;100938.88;5097365;28;20062;-61
2022/01/21 00:32:24;;;;;;;5.93;2.20;;;;;;;-6.00;65.45;100916.06;5080263;28;20055;-62
2022/01/21 00:34:55;;;;;;;4.00;2.20;;;;;;;-5.79;65.10;100952.06;5097247;28;20051;-61
2022/01/21 00:37:26;;;;;;;6.95;2.28;;;;;;;-5.84;64.68;100934.00;5097135;28;20118;-61
2022/01/21 00:39:59;;;;;;;5.22;2.17;;;;;;;-5.79;64.51;100942.78;5096991;28;20107;-62
2022/01/21 00:42:47;;;;;;;10.68;3.28;;;;;;;-5.66;64.11;100950.34;5097031;28;20293;-61
2022/01/21 00:45:19;;;;;;;5.18;2.03;;;;;;;-5.66;63.58;100950.34;5096994;28;20107;-61
2022/01/21 00:47:52;;;;;;;2.85;1.75;;;;;;;-5.67;63.50;100953.66;5097093;28;20071;-62
2022/01/21 00:50:22;;;;;;;5.82;1.88;;;;;;;-5.70;63.72;100953.50;5096997;28;20044;-62
2022/01/21 00:52:53;;;;;;;6.93;2.22;;;;;;;-5.64;64.02;100948.78;5096918;28;20055;-61
2022/01/21 00:55:24;;;;;;;4.93;2.20;;;;;;;-5.54;63.71;100959.50;5078271;28;20083;-61
2022/01/21 00:57:55;;;;;;;3.35;1.63;;;;;;;-5.53;62.73;100951.97;5076756;28;20089;-60
2022/01/21 01:00:26;;;;;;;5.00;2.22;;;;;;;-5.49;63.19;100937.72;5076635;28;20603;-60
2022/01/21 01:02:58;;;;;;;2.25;1.67;;;;;;;-5.50;63.00;100946.16;5076555;28;20063;-61
2022/01/21 01:05:29;;;;;;;6.43;2.08;;;;;;;-5.53;62.54;100940.91;5076407;28;20266;-61
2022/01/21 01:08:01;;;;;;;4.80;1.88;;;;;;;-5.43;62.68;100953.38;5076613;28;20058;-61
2022/01/21 01:10:45;;;;;;;3.92;1.80;;;;;;;-5.55;62.68;100932.28;5076725;28;20071;-61
2022/01/21 01:21:49;;;;;;;2.78;1.80;;;;;;;-5.53;62.15;100940.91;5076801;28;20139;-61
2022/01/21 01:29:54;;;;;;;2.25;1.85;;;;;;;-5.40;61.47;100943.38;5080234;28;20076;-62
2022/01/21 01:32:27;;;;;;;4.53;1.88;;;;;;;-5.28;61.98;100939.00;5080247;28;20063;-62
2022/01/21 01:34:59;;;;;;;3.95;2.05;;;;;;;-5.14;62.13;100931.25;5080028;28;20051;-62
2022/01/21 01:40:30;;;;;;;4.40;2.20;;;;;;;-5.22;61.19;100897.69;5156380;27;20160;-61
2022/01/21 01:51:25;;;;;;;3.60;2.08;;;;;;;-4.78;60.07;100932.47;5135079;28;20049;-61
2022/01/21 01:53:59;;;;;;;5.07;1.85;;;;;;;-4.92;60.31;100883.25;5135095;28;20047;-61
2022/01/21 01:56:35;;;;;;;3.55;1.85;;;;;;;-4.83;59.55;100881.22;5135215;28;20055;-61
2022/01/21 01:59:06;;;;;;;6.57;2.05;;;;;;;-4.52;59.82;100935.56;5134868;28;20051;-61
2022/01/21 02:01:37;;;;;;;4.38;1.73;;;;;;;-4.35;59.61;100917.84;5134932;28;20043;-61
2022/01/21 02:04:08;;;;;;;2.28;1.85;;;;;;;-4.37;58.83;100911.81;5135013;28;20356;-62
2022/01/21 02:06:38;;;;;;;3.58;1.63;;;;;;;-4.42;58.40;100918.31;5135085;28;20047;-61
2022/01/21 02:09:09;;;;;;;2.38;1.63;;;;;;;-4.38;59.03;100907.47;5134815;28;20047;-61
2022/01/21 02:11:41;;;;;;;3.80;1.50;;;;;;;-4.20;59.40;100914.34;5134826;28;20051;-61
2022/01/21 02:14:16;;;;;;;2.78;1.70;;;;;;;-4.10;59.24;100911.50;5134722;28;20102;-61
2022/01/21 02:17:11;;;;;;;5.63;1.90;;;;;;;-4.15;58.34;100907.81;5134699;28;20079;-61
2022/01/21 02:22:35;;;;;;;5.35;2.42;;;;;;;-4.28;58.87;100905.44;5134626;28;20047;-61
2022/01/21 02:25:16;;;;;;;3.72;1.80;;;;;;;-4.22;58.84;100895.53;5134582;28;20258;-61
2022/01/21 02:27:47;;;;;;;4.70;1.67;;;;;;;-4.21;58.21;100902.41;5134914;28;20063;-61
2022/01/21 02:30:21;;;;;;;3.47;1.55;;;;;;;-4.36;58.57;100870.16;5134691;28;20360;-61
2022/01/21 02:32:54;;;;;;;6.10;1.90;;;;;;;-4.53;58.44;100842.88;5134476;28;20218;-61
2022/01/21 02:35:26;;;;;;;4.47;1.67;;;;;;;-4.29;58.07;100888.34;5134391;28;20061;-61
2022/01/21 02:37:58;;;;;;;5.32;2.47;;;;;;;-4.39;58.50;100882.78;5134350;28;20047;-61
2022/01/21 02:40:29;;;;;;;2.28;1.48;;;;;;;-4.41;58.65;100874.16;5134128;28;20063;-61
2022/01/21 02:43:00;;;;;;;8.40;1.67;;;;;;;-4.26;58.78;100888.53;5134237;28;20043;-61
2022/01/21 02:45:30;;;;;;;2.25;1.38;;;;;;;-4.31;58.21;100884.84;5134176;28;20107;-61
2022/01/21 02:48:01;;;;;;;2.63;1.60;;;;;;;-4.24;58.92;100881.81;5134023;28;20054;-61
2022/01/21 02:50:32;;;;;;;6.32;1.70;;;;;;;-4.14;59.08;100878.97;5127529;28;20334;-61
2022/01/21 02:53:12;;;;;;;3.47;1.55;;;;;;;-3.97;58.64;100878.19;5120292;28;20043;-61
2022/01/21 02:55:43;;;;;;;5.45;1.60;;;;;;;-3.88;59.00;100879.44;5120378;28;20115;-61
2022/01/21 02:58:14;;;;;;;1.55;1.35;;;;;;;-3.87;58.02;100878.63;5120101;28;20051;-61
2022/01/21 03:00:45;;;;;;;1.70;1.40;;;;;;;-3.98;57.90;100871.28;5120107;28;20064;-61
2022/01/21 03:03:15;;;;;;;4.95;1.80;;;;;;;-4.10;58.92;100870.66;5120212;28;20059;-61
2022/01/21 03:05:46;;;;;;;2.28;1.40;;;;;;;-4.15;59.62;100872.09;5119937;28;20114;-61
2022/01/21 03:08:18;;;;;;;6.85;1.65;;;;;;;-4.17;59.18;100864.38;5120099;28;20079;-61
2022/01/21 03:10:49;;;;;;;4.47;2.10;;;;;;;-4.25;59.21;100839.25;5120169;28;20269;-61
2022/01/21 03:13:22;;;;;;;6.13;2.75;;;;;;;-4.09;58.82;100867.31;5115918;27;20114;-61
2022/01/21 03:15:53;;;;;;;3.20;1.73;;;;;;;-4.06;59.27;100841.09;5124624;27;20357;-61
2022/01/21 03:18:23;;;;;;;2.30;1.30;;;;;;;-3.92;58.88;100858.88;5140449;27;20516;-61
2022/01/21 03:20:54;;;;;;;2.58;1.50;;;;;;;-4.02;58.98;100859.19;5140377;27;20050;-61
2022/01/21 03:23:29;;;;;;;4.30;1.40;;;;;;;-3.92;59.76;100855.41;5140545;27;20069;-61
2022/01/21 03:25:59;;;;;;;2.58;1.42;;;;;;;-3.83;58.38;100852.47;5122445;27;20099;-61
2022/01/21 03:28:30;;;;;;;3.72;1.75;;;;;;;-3.99;57.99;100846.59;5105005;28;20119;-61
2022/01/21 03:31:01;;;;;;;5.45;1.60;;;;;;;-4.00;58.26;100842.25;5111954;28;20412;-61
2022/01/21 03:33:31;;;;;;;6.32;1.40;;;;;;;-3.85;58.07;100851.50;5119993;27;20399;-61
2022/01/21 03:36:02;;;;;;;4.28;1.70;;;;;;;-3.77;57.04;100834.88;5139509;27;20047;-61
2022/01/21 03:38:35;;;;;;;3.67;1.60;;;;;;;-4.04;56.69;100830.16;5139919;27;20059;-61
2022/01/21 03:41:06;;;;;;;3.55;1.58;;;;;;;-4.10;56.98;100829.81;5140082;27;20090;-61
2022/01/21 03:43:37;;;;;;;2.72;1.58;;;;;;;-4.00;57.30;100832.03;5139999;27;20110;-61
2022/01/21 03:46:08;;;;;;;2.80;1.40;;;;;;;-3.90;57.33;100838.50;5134394;27;20062;-61
2022/01/21 03:48:39;;;;;;;5.80;1.70;;;;;;;-4.01;57.03;100815.00;5139975;27;20047;-61
2022/01/21 03:51:10;;;;;;;3.67;1.92;;;;;;;-3.92;57.32;100830.78;5139993;27;20097;-61
2022/01/21 03:53:43;;;;;;;5.55;1.85;;;;;;;-4.01;57.94;100830.31;5139853;27;20380;-61
2022/01/21 03:56:14;;;;;;;4.60;1.50;;;;;;;-4.00;57.32;100816.72;5139579;27;20054;-61
2022/01/21 03:58:45;;;;;;;3.95;1.40;;;;;;;-4.03;57.55;100823.38;5139883;27;20047;-61
2022/01/21 04:01:15;;;;;;;2.28;1.50;;;;;;;-4.04;57.64;100817.38;5139396;27;20054;-61
2022/01/21 04:03:46;;;;;;;3.80;1.38;;;;;;;-3.92;56.90;100825.69;5139194;27;20055;-61
2022/01/21 04:06:17;;;;;;;1.58;1.40;;;;;;;-3.87;56.87;100822.47;5139736;27;20059;-62
2022/01/21 04:08:49;;;;;;;4.50;1.55;;;;;;;-3.87;55.66;100814.78;5139536;27;20063;-61
2022/01/21 04:11:20;;;;;;;6.90;1.50;;;;;;;-3.90;54.88;100813.84;5139425;27;20102;-61
2022/01/21 04:13:52;;;;;;;2.83;1.50;;;;;;;-3.92;55.38;100828.22;5139487;27;20082;-61
2022/01/21 04:16:23;;;;;;;3.85;1.48;;;;;;;-3.85;55.54;100826.84;5139686;27;20321;-62
2022/01/21 04:18:54;;;;;;;1.48;1.38;;;;;;;-3.92;54.84;100807.81;5139682;27;20218;-63
2022/01/21 04:21:25;;;;;;;2.03;1.40;;;;;;;-3.91;55.14;100832.53;5139297;27;20148;-63
2022/01/21 04:23:58;;;;;;;3.83;1.73;;;;;;;-4.00;54.97;100832.03;5139470;27;20106;-62
2022/01/21 04:26:29;;;;;;;4.47;1.65;;;;;;;-4.03;55.55;100826.78;5139213;27;20054;-62
2022/01/21 04:28:59;;;;;;;5.38;1.27;;;;;;;-4.18;56.43;100810.69;5139348;27;20353;-62
2022/01/21 04:31:30;;;;;;;4.53;1.50;;;;;;;-4.11;56.91;100830.63;5119644;27;20047;-62
2022/01/21 04:34:01;;;;;;;1.58;1.20;;;;;;;-4.11;56.83;100833.19;5102407;28;20063;-63
2022/01/21 04:36:31;;;;;;;2.85;1.42;;;;;;;-4.25;56.38;100839.25;5098244;28;20056;-63
2022/01/21 04:39:05;;;;;;;2.72;1.60;;;;;;;-4.24;56.63;100846.97;5097975;28;20127;-62
2022/01/21 04:47:12;;;;;;;3.25;1.40;;;;;;;-4.25;57.27;100845.22;5097857;28;20055;-62
2022/01/21 04:47:19;;;;;;;5.72;1.77;;;;;;;-4.48;58.08;100851.66;5097892;28;20059;-63
2022/01/21 04:49:51;;;;;;;12.90;1.77;;;;;;;-4.58;58.27;100834.13;5097825;28;20107;-63
2022/01/21 04:52:22;;;;;;;2.83;1.40;;;;;;;-4.57;58.83;100851.16;5097768;28;20108;-63
2022/01/21 04:54:54;;;;;;;3.67;1.60;;;;;;;-4.60;59.09;100845.91;5124469;27;20050;-63
2022/01/21 04:57:25;;;;;;;3.20;1.33;;;;;;;-4.62;59.60;100847.47;5139020;27;20057;-62
2022/01/21 04:59:56;;;;;;;1.60;1.45;;;;;;;-4.62;59.43;100839.84;5127365;27;20051;-62
2022/01/21 05:02:28;;;;;;;3.30;1.50;;;;;;;-4.83;60.43;100842.13;5128767;27;20290;-62
2022/01/21 05:04:59;;;;;;;5.13;1.80;;;;;;;-4.86;60.11;100862.34;5131698;27;20051;-62
2022/01/21 05:07:30;;;;;;;6.57;2.20;;;;;;;-4.88;60.17;100869.91;5138505;27;20046;-62
2022/01/21 05:10:03;;;;;;;4.05;1.40;;;;;;;-4.94;60.99;100854.28;5138376;27;20122;-62
2022/01/21 05:12:34;;;;;;;3.38;1.55;;;;;;;-4.86;61.01;100857.25;5138202;27;20119;-62
2022/01/21 05:15:14;;;;;;;3.28;1.88;;;;;;;-4.97;61.44;100820.94;5138030;27;20273;-63
2022/01/21 05:17:48;;;;;;;;;;;;;;;-4.70;60.66;100858.94;5138821;27;20111;-62
2022/01/21 05:20:20;;;;;;;2.67;1.40;;;;;;;-4.69;60.39;100860.69;5138221;27;19922;-62
2022/01/21 05:22:51;;;;;;;5.78;1.60;;;;;;;-4.62;61.24;100863.69;5109225;28;20054;-62
2022/01/21 05:25:23;;;;;;;3.45;1.80;;;;;;;-4.57;61.26;100861.34;5097441;28;20052;-63
2022/01/21 05:27:58;;;;;;;2.22;1.40;;;;;;;-4.56;60.73;100864.00;5097422;28;20066;-62
2022/01/21 05:30:29;;;;;;;1.83;1.48;;;;;;;-4.73;59.99;100851.13;5097877;28;20124;-63
2022/01/21 05:32:59;;;;;;;7.13;1.45;;;;;;;-4.75;60.64;100870.56;5097438;28;20094;-63
2022/01/21 05:35:30;;;;;;;2.25;1.40;;;;;;;-4.90;61.01;100876.56;5097551;28;20043;-63
2022/01/21 05:38:01;;;;;;;3.45;1.70;;;;;;;-4.96;61.56;100871.16;5097286;28;20075;-63
2022/01/21 05:40:33;;;;;;;2.80;1.50;;;;;;;-5.00;61.98;100869.22;5097139;28;20103;-63
2022/01/21 05:43:08;;;;;;;1.58;1.48;;;;;;;-4.96;62.08;100871.16;5097089;28;20063;-63
2022/01/21 05:48:26;;;;;;;1.95;1.52;;;;;;;-5.03;61.04;100863.94;5098072;28;20060;-62
2022/01/21 05:50:58;;;;;;;3.50;1.50;;;;;;;-4.97;61.22;100884.66;5116756;28;20103;-62
2022/01/21 05:53:28;;;;;;;3.08;1.70;;;;;;;-5.03;61.27;100884.34;5117417;28;20051;-63
2022/01/21 05:56:02;;;;;;;2.45;1.50;;;;;;;-5.12;61.07;100873.63;5117499;28;20177;-63
2022/01/21 05:58:33;;;;;;;2.35;1.40;;;;;;;-5.24;60.85;100869.59;5108776;28;20105;-62
2022/01/21 06:01:03;;;;;;;4.97;1.83;;;;;;;-5.22;61.58;100872.22;5096558;28;20052;-63
2022/01/21 06:03:35;;;;;;;3.83;1.80;;;;;;;-5.32;61.73;100878.47;5096889;28;20064;-63
2022/01/21 06:06:06;;;;;;;4.28;1.58;;;;;;;-5.38;61.18;100883.22;5096561;28;20115;-64
2022/01/21 06:08:38;;;;;;;3.30;1.60;;;;;;;-5.46;61.05;100897.19;5110782;28;20052;-63
2022/01/21 06:11:10;;;;;;;1.77;1.50;;;;;;;-5.67;61.66;100874.75;5104204;28;20062;-63
2022/01/21 06:13:41;;;;;;;4.05;1.45;;;;;;;-5.63;61.77;100902.16;5096738;28;20195;-63
2022/01/21 06:16:11;;;;;;;3.78;1.48;;;;;;;-5.67;62.32;100902.75;5096710;28;20062;-63
2022/01/21 06:18:42;;;;;;;4.07;1.40;;;;;;;-5.75;62.41;100903.97;5096606;28;20051;-63
2022/01/21 06:21:13;;;;;;;3.17;1.70;;;;;;;-5.79;62.93;100891.88;5101813;28;20389;-63
2022/01/21 06:23:43;;;;;;;2.45;1.40;;;;;;;-5.88;63.18;100902.38;5116026;28;20119;-64
2022/01/21 06:26:16;;;;;;;3.22;1.40;;;;;;;-5.90;63.08;100892.91;5118096;28;20146;-63
2022/01/21 06:28:46;;;;;;;3.30;1.60;;;;;;;-5.84;63.69;100908.53;5122115;27;20147;-63
2022/01/21 06:31:17;;;;;;;2.60;1.48;;;;;;;-5.88;63.43;100906.59;5141365;27;20077;-62
2022/01/21 06:33:48;;;;;;;7.88;1.80;;;;;;;-5.83;63.68;100910.28;5140998;27;20357;-69
2022/01/21 06:36:19;;;;;;;1.50;1.40;;;;;;;-5.85;63.82;100912.72;5141378;27;20070;-63
2022/01/21 06:38:50;;;;;;;4.57;1.75;;;;;;;-5.78;63.39;100913.13;5140704;27;20061;-64
2022/01/21 06:41:22;;;;;;;4.30;1.80;;;;;;;-5.75;63.67;100919.25;5141168;27;20047;-64
2022/01/21 06:43:53;;;;;;;4.13;2.20;;;;;;;-5.71;63.68;100916.13;5141142;27;20047;-64
2022/01/21 06:46:23;;;;;;;1.90;1.70;;;;;;;-5.69;63.48;100919.63;5141169;27;20081;-63
2022/01/21 06:48:54;;;;;;;5.07;2.20;;;;;;;-5.77;63.32;100910.63;5141135;27;20099;-60
2022/01/21 06:51:25;;;;;;;4.97;2.20;;;;;;;-5.73;64.08;100920.22;5140907;27;20054;-62
2022/01/21 06:53:56;;;;;;;5.80;2.20;;;;;;;-5.86;64.64;100920.28;5140998;27;20058;-62
2022/01/21 06:56:28;;;;;;;5.78;2.72;;;;;;;-5.82;65.07;100931.53;5140957;27;20043;-62
2022/01/21 06:58:59;;;;;;;8.73;2.58;;;;;;;-5.99;65.79;100907.63;5140896;27;20314;-62
2022/01/21 07:01:30;;;;;;;5.20;2.55;;;;;;;-5.98;66.41;100919.59;5140855;27;20363;-60
2022/01/21 07:04:01;;;;;;;11.18;5.55;;;;;;;-5.96;66.66;100925.66;5141095;27;20063;-60
2022/01/21 07:06:32;;;;;;;22.15;8.90;;;;;;;-5.99;67.35;100933.06;5127587;27;20039;-61
2022/01/21 07:09:03;;;;;;;32.90;12.75;;;;;;;-5.98;67.53;100930.63;5119290;27;20074;-60
2022/01/21 07:11:35;;;;;;;24.13;10.88;;;;;;;-5.96;67.74;100929.06;5114250;28;20075;-60
2022/01/21 07:14:06;;;;;;;12.45;5.78;;;;;;;-5.96;68.13;100928.19;5114173;28;20079;-60
2022/01/21 07:16:37;;;;;;;4.32;2.95;;;;;;;-5.92;68.33;100937.72;5115355;28;20043;-61
2022/01/21 07:19:07;;;;;;;6.32;3.45;;;;;;;-5.87;68.54;100933.78;5115646;28;20473;-61
2022/01/21 07:21:38;;;;;;;5.63;3.03;;;;;;;-5.82;68.68;100937.50;5115284;28;20062;-61
2022/01/21 07:24:09;;;;;;;7.68;3.40;;;;;;;-5.78;68.73;100938.56;5115487;28;20130;-60
2022/01/21 07:26:41;;;;;;;8.60;2.85;;;;;;;-5.88;68.94;100932.03;5115958;28;20244;-60
2022/01/21 07:29:12;;;;;;;4.50;1.83;;;;;;;-5.94;69.34;100929.16;5116069;28;20044;-60
2022/01/21 07:31:43;;;;;;;5.50;1.90;;;;;;;-6.00;70.10;100936.44;5116203;28;20051;-59
2022/01/21 07:34:14;;;;;;;7.03;2.00;;;;;;;-6.04;71.85;100937.00;5116189;28;20250;-60
2022/01/21 07:36:44;;;;;;;6.13;2.20;;;;;;;-5.99;72.03;100943.25;5116024;28;20093;-59
2022/01/21 07:39:15;;;;;;;9.30;2.13;;;;;;;-5.99;72.22;100948.34;5116004;28;20115;-59
2022/01/21 07:41:54;;;;;;;6.88;2.83;;;;;;;-6.05;72.98;100940.34;5116505;28;20055;-59
2022/01/21 07:44:24;;;;;;;4.15;2.50;;;;;;;-6.13;73.08;100935.69;5115868;28;20294;-59
2022/01/21 07:46:55;;;;;;;5.28;2.38;;;;;;;-6.04;73.29;100944.66;5114951;28;20065;-60
2022/01/21 07:49:26;;;;;;;3.72;1.90;;;;;;;-6.12;73.05;100945.06;5114929;28;20066;-59
2022/01/21 07:51:58;;;;;;;5.43;2.17;;;;;;;-6.13;73.35;100948.41;5113470;28;20261;-60
2022/01/21 07:54:28;;;;;;;5.80;2.13;;;;;;;-6.01;73.60;100949.94;5115538;28;20058;-59
2022/01/21 07:57:02;;;;;;;4.10;2.28;;;;;;;-6.00;73.11;100947.47;5115673;28;20388;-59
2022/01/21 07:59:32;;;;;;;3.70;2.03;;;;;;;-5.99;72.86;100958.53;5115433;28;20079;-60
2022/01/21 08:02:03;;;;;;;5.05;2.20;;;;;;;-6.01;73.13;100955.03;5115882;28;20058;-59
2022/01/21 08:04:34;;;;;;;3.90;2.40;;;;;;;-6.24;72.96;100938.34;5115270;28;20051;-59
2022/01/21 08:07:05;;;;;;;6.60;3.00;;;;;;;-6.33;73.32;100936.13;5112731;28;20199;-59
2022/01/21 08:09:36;;;;;;;6.40;3.05;;;;;;;-6.35;74.30;100947.84;5114902;28;20115;-60
2022/01/21 08:12:11;;;;;;;6.35;2.80;;;;;;;-6.53;74.63;100938.28;5114936;28;20122;-58
2022/01/21 08:14:42;;;;;;;10.10;2.92;;;;;;;-6.51;74.51;100954.53;5114546;28;20043;-59
2022/01/21 08:17:13;;;;;;;7.00;2.88;;;;;;;-6.66;75.10;100935.78;5113444;28;20353;-58
2022/01/21 08:19:43;;;;;;;7.70;2.97;;;;;;;-6.59;75.26;100958.25;5115608;28;20378;-58
2022/01/21 08:22:14;;;;;;;6.65;2.22;;;;;;;-6.66;75.53;100960.28;5115225;28;20670;-58
2022/01/21 08:24:45;;;;;;;8.48;2.45;;;;;;;-6.70;75.67;100959.22;5115676;28;20306;-59
2022/01/21 08:27:17;;;;;;;6.28;3.20;;;;;;;-6.81;75.87;100955.13;5115007;28;20089;-59
2022/01/21 08:29:48;;;;;;;4.32;2.28;;;;;;;-6.78;75.65;100955.31;5115237;28;20088;-59
2022/01/21 08:32:20;;;;;;;5.05;2.40;;;;;;;-7.05;75.67;100922.25;5115481;28;20381;-59
2022/01/21 08:34:51;;;;;;;4.43;2.10;;;;;;;-6.75;75.68;100974.16;5115306;28;20314;-59
2022/01/21 08:37:21;;;;;;;4.85;2.10;;;;;;;-6.74;76.00;100977.59;5115547;28;20126;-59
2022/01/21 08:39:52;;;;;;;2.97;2.00;;;;;;;-6.79;75.84;100971.31;5114152;28;20112;-59
2022/01/21 08:42:24;;;;;;;4.40;2.22;;;;;;;-6.81;75.91;100972.91;5115071;28;20097;-59
2022/01/21 08:44:55;;;;;;;5.90;2.15;;;;;;;-7.02;75.91;100932.63;5115472;28;20043;-59
2022/01/21 08:47:26;;;;;;;6.47;2.22;;;;;;;-6.74;75.81;100972.50;5115463;28;20258;-59
2022/01/21 08:50:00;;;;;;;3.05;2.10;;;;;;;-6.69;75.72;100986.38;5114801;28;20043;-58
2022/01/21 08:52:35;;;;;;;8.65;2.17;;;;;;;-6.68;75.30;100990.72;5115180;28;20063;-58
2022/01/21 08:55:07;;;;;;;3.92;2.10;;;;;;;-6.80;75.45;100972.13;5114950;28;20096;-58
2022/01/21 08:57:42;;;;;;;4.82;2.03;;;;;;;-6.77;75.22;100995.19;5115297;28;20039;-58
2022/01/21 09:00:16;;;;;;;3.05;2.22;;;;;;;-6.79;75.16;100989.13;5114933;28;20414;-58
2022/01/21 09:02:47;;;;;;;6.03;1.90;;;;;;;-6.76;75.31;100999.50;5114837;28;20069;-57
2022/01/21 09:05:18;;;;;;;4.78;2.30;;;;;;;-6.77;75.74;100998.59;5112686;28;20060;-58
2022/01/21 09:07:49;;;;;;;4.22;2.30;;;;;;;-6.81;75.78;100993.25;5113333;28;20142;-58
2022/01/21 09:10:19;;;;;;;6.38;2.00;;;;;;;-6.89;75.75;100991.84;5114276;28;20051;-59
2022/01/21 09:12:52;;;;;;;9.57;2.60;;;;;;;-6.88;76.06;100998.72;5114186;28;20074;-59
2022/01/21 09:15:25;;;;;;;4.22;1.83;;;;;;;-6.87;76.11;101010.63;5111647;28;20237;-60
2022/01/21 09:18:04;;;;;;;13.20;4.45;;;;;;;-6.91;76.10;101016.28;5113967;28;20052;-58
2022/01/21 09:20:36;;;;;;;26.25;8.50;;;;;;;-6.96;76.57;101011.78;5114494;28;20619;-59
2022/01/21 09:23:07;;;;;;;15.20;4.70;;;;;;;-6.97;76.45;101015.09;5114333;28;20063;-59
2022/01/21 09:25:38;;;;;;;30.00;8.18;;;;;;;-6.96;76.77;101016.88;5114336;28;20082;-59
2022/01/21 09:28:11;;;;;;;33.50;9.20;;;;;;;-7.01;76.87;101012.28;5114073;28;20081;-59
2022/01/21 09:30:42;;;;;;;95.13;23.23;;;;;;;-7.15;77.21;100991.03;5114491;28;20043;-59
2022/01/21 09:33:12;;;;;;;55.30;13.95;;;;;;;-7.27;77.15;100974.97;5113827;28;20064;-59
2022/01/21 09:35:43;;;;;;;12.90;3.70;;;;;;;-7.04;77.43;101018.03;5114463;28;20305;-59
2022/01/21 09:38:14;;;;;;;19.38;5.38;;;;;;;-7.07;77.53;101017.81;5113518;28;20051;-59
2022/01/21 09:40:48;;;;;;;7.38;3.10;;;;;;;-7.27;77.92;101001.25;5114655;28;20055;-59
2022/01/21 09:43:21;;;;;;;8.57;3.53;;;;;;;-7.50;78.41;100984.47;5114334;28;20060;-59
2022/01/21 09:45:54;;;;;;;5.75;3.30;;;;;;;-7.40;78.71;101007.16;5114670;28;20051;-59
2022/01/21 09:48:28;;;;;;;9.50;3.63;;;;;;;-7.23;79.03;101035.38;5113542;28;20047;-59
2022/01/21 09:51:01;;;;;;;9.98;5.00;;;;;;;-7.97;79.10;100913.63;5113513;28;20051;-58
2022/01/21 09:53:33;;;;;;;11.70;4.90;;;;;;;-7.52;79.12;101003.78;5113878;28;20039;-58
2022/01/21 09:56:05;;;;;;;16.77;6.28;;;;;;;-7.39;79.48;101024.19;5113855;28;20334;-58
2022/01/21 09:58:38;;;;;;;9.32;3.90;;;;;;;-7.32;79.38;101039.81;5114117;28;20057;-58
2022/01/21 10:01:14;;;;;;;8.85;4.70;;;;;;;-7.74;79.56;100975.19;5115636;28;20241;-58
2022/01/21 10:03:46;;;;;;;12.45;5.10;;;;;;;-7.32;79.87;101044.88;5117409;28;20770;-58
2022/01/21 10:06:17;;;;;;;8.90;3.33;;;;;;;-7.38;80.07;101046.22;5118170;28;20062;-58
2022/01/21 10:08:49;;;;;;;10.10;3.50;;;;;;;-7.39;80.11;101048.66;5118626;28;20082;-57
2022/01/21 10:11:20;;;;;;;8.52;4.00;;;;;;;-7.43;80.21;101047.59;5118224;28;20124;-57
2022/01/21 10:13:55;;;;;;;9.25;6.13;;;;;;;-7.40;80.31;101057.94;5118294;28;20052;-57
2022/01/21 10:16:26;;;;;;;12.05;5.55;;;;;;;-7.49;80.74;101041.19;5118243;28;20141;-58
2022/01/21 10:19:05;;;;;;;6.80;4.18;;;;;;;-7.42;80.58;101059.50;5118072;28;20079;-58
2022/01/21 10:21:38;;;;;;;7.78;3.20;;;;;;;-7.94;80.79;100978.91;5117440;28;20329;-58
2022/01/21 10:24:10;;;;;;;7.53;3.38;;;;;;;-7.51;80.75;101057.97;5117220;27;20114;-58
2022/01/21 10:26:49;;;;;;;9.00;3.00;;;;;;;-7.50;80.84;101068.25;5116917;28;20101;-58
2022/01/21 10:29:22;;;;;;;6.78;3.20;;;;;;;-7.57;81.08;101058.44;5117746;28;20385;-57
2022/01/21 10:31:54;;;;;;;6.68;2.85;;;;;;;-7.62;81.27;101059.78;5116958;28;20082;-57
2022/01/21 10:34:29;;;;;;;9.30;3.80;;;;;;;-7.91;81.38;101015.53;5117306;28;20043;-57
2022/01/21 10:37:07;;;;;;;10.02;3.00;;;;;;;-7.62;81.49;101064.84;5117854;28;20055;-58
2022/01/21 10:39:56;;;;;;;20.45;7.03;;;;;;;-7.65;81.75;101049.44;5116132;28;20087;-58
2022/01/21 10:42:28;;;;;;;34.53;8.93;;;;;;;-7.66;81.77;101057.78;5117531;28;20086;-58
2022/01/21 10:45:01;;;;;;;42.75;11.32;;;;;;;-7.66;81.65;101052.72;5115144;28;20384;-59
2022/01/21 10:47:34;;;;;;;20.63;5.93;;;;;;;-7.69;81.90;101042.38;5117682;28;20383;-58
2022/01/21 10:50:08;;;;;;;9.68;4.40;;;;;;;-7.72;81.58;101037.09;5117594;28;20055;-58
2022/01/21 10:52:40;;;;;;;12.60;3.63;;;;;;;-7.73;81.79;101035.34;5116493;28;20135;-58
2022/01/21 10:55:29;;;;;;;9.18;3.85;;;;;;;-7.60;81.38;101038.81;5116868;28;20096;-58
2022/01/21 10:58:08;;;;;;;12.35;4.22;;;;;;;-7.63;81.28;101052.97;5116272;28;20318;-58
2022/01/21 11:00:59;;;;;;;6.00;3.90;;;;;;;-7.64;81.07;101041.03;5116556;28;20719;-59
2022/01/21 11:03:31;;;;;;;9.75;6.03;;;;;;;-7.69;81.24;101042.38;5115488;28;20047;-58
2022/01/21 11:06:14;;;;;;;9.25;3.47;;;;;;;-8.00;81.15;100991.19;5115925;28;20039;-58
2022/01/21 11:08:45;;;;;;;8.40;2.88;;;;;;;-8.06;81.29;100982.38;5116738;28;20283;-58
2022/01/21 11:11:15;;;;;;;16.90;3.72;;;;;;;-7.69;81.03;101043.25;5116335;28;20093;-58
2022/01/21 11:13:46;;;;;;;8.85;3.13;;;;;;;-7.71;80.99;101046.44;5116859;28;20085;-58
2022/01/21 11:16:23;;;;;;;9.40;3.60;;;;;;;-7.82;81.01;101028.84;5114735;27;20248;-58
2022/01/21 11:19:16;;;;;;;11.27;3.65;;;;;;;-7.81;81.06;101042.44;5114457;27;20047;-58
2022/01/21 11:21:53;;;;;;;8.65;4.20;;;;;;;-7.86;81.34;101049.72;5116633;28;20097;-58
2022/01/21 11:24:25;;;;;;;9.80;3.63;;;;;;;-8.12;81.54;100989.53;5115056;28;20089;-59
2022/01/21 11:27:14;;;;;;;10.45;3.53;;;;;;;-8.60;81.58;100923.66;5114990;28;20055;-59
2022/01/21 11:29:46;;;;;;;7.88;2.75;;;;;;;-7.96;81.97;101041.31;5116005;28;20048;-59
2022/01/21 11:32:19;;;;;;;5.20;2.33;;;;;;;-8.06;82.05;101019.53;5116530;28;20043;-60
2022/01/21 11:34:49;;;;;;;7.65;2.22;;;;;;;-8.02;82.03;101036.72;5115968;28;20047;-59
2022/01/21 11:37:20;;;;;;;6.00;2.30;;;;;;;-7.98;82.38;101042.91;5116075;28;20115;-59
2022/01/21 11:39:53;;;;;;;5.18;2.38;;;;;;;-8.02;82.23;101037.59;5116225;28;20056;-58
2022/01/21 11:42:25;;;;;;;4.88;2.38;;;;;;;-8.03;82.40;101035.84;5115931;28;20067;-58
2022/01/21 11:45:04;;;;;;;8.77;2.83;;;;;;;-8.03;82.52;101045.13;5115721;28;20048;-61
2022/01/21 11:48:00;;;;;;;5.97;2.38;;;;;;;-8.07;82.39;101032.97;5114911;28;20060;-58
2022/01/21 11:50:32;;;;;;;4.50;2.30;;;;;;;-8.11;82.44;101036.06;5115253;28;20063;-59
2022/01/21 11:53:06;;;;;;;5.53;2.80;;;;;;;-8.08;82.59;101036.31;5116307;27;20059;-58
2022/01/21 11:55:40;;;;;;;4.65;2.60;;;;;;;-8.33;82.25;100999.06;5114773;28;20071;-59
2022/01/21 11:58:16;;;;;;;4.30;2.40;;;;;;;-8.02;82.39;101051.94;5115934;28;20051;-59
2022/01/21 12:00:48;;;;;;;8.82;3.38;;;;;;;-7.99;82.11;101047.06;5115966;28;20078;-59
2022/01/21 12:03:23;;;;;;;6.03;2.42;;;;;;;-8.05;82.06;101031.44;5115996;28;20051;-59
2022/01/21 12:05:53;;;;;;;3.78;2.22;;;;;;;-7.93;81.90;101057.66;5115882;28;20052;-58
2022/01/21 12:08:49;;;;;;;6.65;2.90;;;;;;;-7.92;81.91;101054.34;5114399;28;20104;-59
2022/01/21 12:11:34;;;;;;;4.55;2.60;;;;;;;-8.17;81.89;101010.28;5097347;28;20056;-56
2022/01/21 12:14:28;;;;;;;6.93;2.60;;;;;;;-7.96;81.44;101062.53;5115783;28;20214;-56
2022/01/21 12:17:12;;;;;;;7.80;2.50;;;;;;;-7.93;81.65;101062.75;5115257;27;20040;-58
2022/01/21 12:19:44;;;;;;;7.65;2.70;;;;;;;-8.04;81.65;101048.41;5115411;28;20046;-58
2022/01/21 12:22:18;;;;;;;4.35;2.42;;;;;;;-8.27;81.48;101042.59;5115542;28;20044;-58
2022/01/21 12:25:06;;;;;;;4.65;2.33;;;;;;;-8.06;81.74;101061.00;5114311;28;20055;-58
2022/01/21 12:27:38;;;;;;;8.85;3.03;;;;;;;-8.17;81.46;101045.78;5115146;28;20355;-57
2022/01/21 12:30:30;;;;;;;6.90;3.47;;;;;;;-8.27;81.76;101045.13;5113477;27;20052;-57
2022/01/21 12:33:09;;;;;;;6.32;2.47;;;;;;;-8.07;81.39;101068.47;5113693;27;20447;-58
2022/01/21 12:35:43;;;;;;;5.60;2.70;;;;;;;-8.07;81.42;101069.34;5113350;28;20085;-58